Saturday, November 18, 2017, 11:53 AM GMT
Back to Local

CWTN, Cap Tourmente

Location: , , Canada Lat: 47.067
Local Time: 11:53 AM GMT (11:53 GMT) Lon: -70.8
Time Zone: GMT Elev: 19 ft

Show me the last for .
Show Coded

Time T Td Feel RH Dir Speed Gust Alt SLP Vis Weather Sky Remarks
2017-11-18 11:00 16 13 10 88 300° 3 - - 29.96 0 None
2017-11-18 10:00 16 13 10 89 330° 3 - - 29.96 0 None
2017-11-18 09:00 17 13 - 86 330° 2 - - 29.95 0 None
2017-11-18 08:00 19 15 - 84 320° 2 - - 29.93 0 None
2017-11-18 07:00 22 15 17 74 280° 3 - - 29.93 0 None
2017-11-18 06:00 24 13 18 61 300° 5 - - 29.91 0 None
2017-11-18 05:00 24 12 20 58 360° 3 - - 29.92 0 None
2017-11-18 04:00 21 16 - 81 340° 2 - - 29.93 0 None
2017-11-18 03:00 22 15 - 72 320° 1 - - 29.93 0 None
2017-11-18 02:00 24 15 20 66 360° 3 - - 29.93 0 None
2017-11-18 01:00 25 15 18 65 220° 6 - - 29.93 0 None
2017-11-18 00:00 26 16 16 66 250° 9 - - 29.94 0 None
2017-11-17 23:00 26 17 17 69 260° 8 - - 29.93 0 None
2017-11-17 22:00 27 17 18 65 270° 9 - - 29.92 0 None
2017-11-17 21:00 29 19 20 64 250° 9 - - 29.91 0 None
2017-11-17 20:00 33 17 - 50 290° 2 - - 29.87 0 None
2017-11-17 19:00 35 19 30 51 280° 6 - - 29.84 0 None
2017-11-17 18:00 35 20 29 52 240° 8 - - 29.82 0 Peak wind: 23 mph (20 kts) from 300° at 10 min
2017-11-17 17:00 35 19 25 52 320° 8 17 - 29.81 0 Peak wind: 19 mph (17 kts) from 340° at 22 min
2017-11-17 16:00 35 20 25 53 340° 8 17 - 29.80 0 Peak wind: 24 mph (21 kts) from 310° at 42 min
2017-11-17 15:00 34 22 - 62 340° 1 - - 29.80 0 None
2017-11-17 14:00 34 23 30 63 70° 5 - - 29.79 0 None
2017-11-17 13:00 35 26 30 69 120° 5 - - 29.76 0 None
2017-11-17 12:00 36 28 32 72 260° 5 - - 29.74 0 None

Support USWX by starting your Amazon purchase here.